Time;durP1;ratioP1;P1;durP2;ratioP2;P2;SDS_P1;SDS_P2;PMS_P1;PMS_P2;Temp;Humidity;BMP_temperature;BMP_pressure;BME280_temperature;BME280_humidity;BME280_pressure;Samples;Min_cycle;Max_cycle;Signal;HPM_P1;HPM_P2
2021/07/29 04:15:37;;;;;;;;;5.75;4.00;;;;;15.12;87.59;101069.13;5114488;27;45408;-63
2021/07/29 04:18:03;;;;;;;;;16.25;13.50;;;;;15.36;87.27;101062.88;5096945;27;45339;-68
2021/07/29 04:20:28;;;;;;;;;5.50;5.50;;;;;15.63;86.07;101071.38;5095879;27;45556;-68
2021/07/29 04:22:53;;;;;;;;;8.00;5.00;;;;;15.86;85.73;101069.50;5096347;27;51924;-68
2021/07/29 04:25:19;;;;;;;;;4.00;4.00;;;;;16.03;85.11;101070.47;5095883;27;45216;-68
2021/07/29 04:27:44;;;;;;;;;5.25;4.25;;;;;16.21;84.57;101073.16;5097126;27;45233;-68
2021/07/29 04:30:10;;;;;;;;;6.50;5.00;;;;;16.35;84.22;101074.22;5096798;27;45258;-68
2021/07/29 04:32:36;;;;;;;;;5.25;3.75;;;;;16.45;83.81;101073.81;5097394;27;45229;-68
2021/07/29 04:35:02;;;;;;;;;8.00;6.25;;;;;16.54;83.36;101079.47;5095387;27;46428;-68
2021/07/29 04:37:27;;;;;;;;;5.75;5.75;;;;;16.59;83.29;101074.84;5089773;27;45657;-68
2021/07/29 04:39:53;;;;;;;;;5.50;5.00;;;;;16.64;83.30;101075.53;5096576;27;45303;-68
2021/07/29 04:42:18;;;;;;;;;6.25;6.00;;;;;16.71;82.76;101081.34;5096909;27;45332;-68
2021/07/29 04:44:43;;;;;;;;;5.75;3.75;;;;;16.81;82.48;101081.75;5096679;27;46089;-68
2021/07/29 04:47:09;;;;;;;;;5.00;5.00;;;;;16.87;82.36;101081.47;5096848;27;45375;-68
2021/07/29 04:49:34;;;;;;;;;6.50;6.50;;;;;16.89;82.32;101077.00;5102425;27;45481;-68
2021/07/29 04:52:00;;;;;;;;;7.00;5.50;;;;;16.92;82.14;101079.47;5096702;27;45529;-68
2021/07/29 04:54:26;;;;;;;;;6.25;4.25;;;;;16.96;82.31;101078.38;5096251;27;46259;-55
2021/07/29 04:56:51;;;;;;;;;5.75;5.00;;;;;17.06;82.09;101082.28;5096670;27;45380;-56
2021/07/29 04:59:19;;;;;;;;;5.00;5.00;;;;;17.12;81.91;101081.13;5093781;27;45511;-56
2021/07/29 05:01:44;;;;;;;;;7.75;7.00;;;;;17.20;81.86;101085.06;5094541;27;45287;-56
2021/07/29 05:04:11;;;;;;;;;8.75;6.50;;;;;17.32;81.10;101084.47;5094401;27;45378;-56
2021/07/29 05:06:36;;;;;;;;;9.00;4.75;;;;;17.40;80.67;101084.06;5094374;27;45459;-56
2021/07/29 05:09:02;;;;;;;;;5.00;4.50;;;;;17.44;80.39;101082.16;5094292;27;45445;-56
2021/07/29 05:11:28;;;;;;;;;5.00;5.00;;;;;17.46;79.89;101077.69;5094398;27;45534;-56
2021/07/29 05:13:54;;;;;;;;;5.25;4.00;;;;;17.51;79.81;101076.50;5093818;27;47557;-56
2021/07/29 05:16:19;;;;;;;;;6.50;4.50;;;;;17.49;79.57;101082.78;5088684;27;45662;-56
2021/07/29 05:18:45;;;;;;;;;8.75;7.00;;;;;17.49;80.43;101075.75;5096096;27;45330;-56
2021/07/29 05:21:10;;;;;;;;;5.25;4.50;;;;;17.57;79.40;101078.81;5096083;27;45501;-56
2021/07/29 05:23:35;;;;;;;;;3.00;3.00;;;;;17.59;79.13;101090.09;5084730;27;47916;-56
2021/07/29 05:26:01;;;;;;;;;3.00;3.00;;;;;17.52;78.96;101088.72;5086012;27;45241;-56
2021/07/29 05:28:27;;;;;;;;;4.00;2.75;;;;;17.41;79.52;101090.16;5082497;27;45341;-56
2021/07/29 05:30:53;;;;;;;;;6.50;4.50;;;;;17.39;79.79;101092.03;5082461;27;45498;-56
2021/07/29 05:33:18;;;;;;;;;7.75;5.75;;;;;17.42;79.76;101097.13;5081942;27;46423;-61
2021/07/29 05:35:44;;;;;;;;;6.25;6.00;;;;;17.46;79.53;101090.81;5074671;27;45445;-56
2021/07/29 05:38:10;;;;;;;;;6.50;4.25;;;;;17.53;79.30;101095.66;5070524;28;45233;-56
2021/07/29 05:40:35;;;;;;;;;5.00;4.00;;;;;17.58;78.75;101092.81;5068364;28;45283;-56
2021/07/29 05:43:01;;;;;;;;;8.25;5.50;;;;;17.65;78.97;101096.84;5070044;28;45231;-56
2021/07/29 05:45:28;;;;;;;;;6.50;5.00;;;;;17.76;78.29;101099.78;5081977;27;45362;-56
2021/07/29 05:47:53;;;;;;;;;6.50;5.00;;;;;17.84;78.38;101105.50;5082388;27;45301;-56
2021/07/29 05:50:19;;;;;;;;;7.00;7.00;;;;;17.89;77.77;101100.84;5081560;27;46888;-55
2021/07/29 05:52:44;;;;;;;;;5.75;4.00;;;;;17.86;77.63;101101.03;5082218;27;46251;-56
2021/07/29 05:55:10;;;;;;;;;3.50;3.50;;;;;17.85;77.40;101099.31;5067124;27;45385;-56
2021/07/29 05:57:35;;;;;;;;;4.75;4.75;;;;;17.82;77.76;101103.88;5069494;28;45292;-56
2021/07/29 06:00:01;;;;;;;;;3.50;3.50;;;;;17.84;77.58;101091.53;5067450;28;45405;-56
2021/07/29 06:02:27;;;;;;;;;3.75;3.25;;;;;17.82;77.73;101099.50;5069281;28;45383;-56
2021/07/29 06:04:52;;;;;;;;;6.25;4.75;;;;;17.85;77.63;101094.06;5080335;28;45411;-56
2021/07/29 06:07:18;;;;;;;;;6.25;4.75;;;;;17.87;77.34;101097.47;5082015;27;45354;-56
2021/07/29 06:09:44;;;;;;;;;4.75;4.50;;;;;17.84;77.47;101102.88;5081307;27;45586;-56
2021/07/29 06:12:09;;;;;;;;;12.00;8.00;;;;;17.82;77.54;101109.13;5081703;27;46025;-56
2021/07/29 06:14:35;;;;;;;;;4.50;4.00;;;;;17.84;77.83;101110.78;5077993;27;45280;-56
2021/07/29 06:17:01;;;;;;;;;5.25;4.00;;;;;17.85;77.53;101112.47;5077986;27;45243;-56
2021/07/29 06:19:29;;;;;;;;;5.00;4.75;;;;;17.86;77.25;101110.69;5081692;27;45284;-56
2021/07/29 06:21:58;;;;;;;;;7.25;5.75;;;;;17.85;77.23;101111.63;5081615;27;46159;-56
2021/07/29 06:24:25;;;;;;;;;2.75;2.25;;;;;17.93;77.20;101110.28;5077318;27;47176;-56
2021/07/29 06:26:51;;;;;;;;;5.00;5.00;;;;;18.03;76.79;101109.81;5070152;27;45605;-56
2021/07/29 06:29:17;;;;;;;;;7.50;5.00;;;;;18.08;76.51;101118.31;5081034;27;45223;-56
2021/07/29 06:31:42;;;;;;;;;7.00;5.75;;;;;18.15;76.45;101117.03;5080024;27;46219;-56
2021/07/29 06:34:07;;;;;;;;;10.00;5.50;;;;;18.26;75.52;101130.50;5077413;28;46783;-56
2021/07/29 06:36:33;;;;;;;;;6.00;4.50;;;;;18.28;75.97;101128.63;5077665;27;45296;-56
2021/07/29 06:38:59;;;;;;;;;5.25;5.00;;;;;18.33;75.80;101134.47;5090589;27;46103;-56
2021/07/29 06:41:25;;;;;;;;;6.50;4.50;;;;;18.43;75.47;101132.22;5080951;27;46586;-56
2021/07/29 06:43:50;;;;;;;;;6.50;4.25;;;;;18.52;74.35;101129.94;5080964;27;45374;-56
2021/07/29 06:46:15;;;;;;;;;4.75;4.75;;;;;18.60;74.49;101131.28;5081335;27;45471;-56
2021/07/29 06:48:41;;;;;;;;;11.50;7.50;;;;;18.65;74.42;101138.06;5080856;27;45519;-56
2021/07/29 06:51:08;;;;;;;;;8.25;5.00;;;;;18.67;74.62;101138.81;5080576;28;47143;-56
2021/07/29 06:53:35;;;;;;;;;3.25;3.25;;;;;18.76;74.02;101140.06;5081057;27;45192;-56
2021/07/29 06:56:01;;;;;;;;;4.00;4.00;;;;;18.74;73.07;101148.06;5080722;27;45298;-56
2021/07/29 06:58:27;;;;;;;;;5.00;5.00;;;;;18.73;72.77;101146.38;5080856;27;45238;-56
2021/07/29 07:00:52;;;;;;;;;4.75;4.25;;;;;18.67;72.15;101153.75;5080420;27;46713;-56
2021/07/29 07:03:18;;;;;;;;;4.50;3.75;;;;;18.63;72.93;101155.72;5086329;27;45230;-57
2021/07/29 07:05:47;;;;;;;;;5.00;3.75;;;;;18.65;72.04;101153.00;5080989;27;45373;-57
2021/07/29 07:08:13;;;;;;;;;6.00;5.00;;;;;18.66;71.89;101150.28;5080677;27;45254;-56
2021/07/29 07:10:39;;;;;;;;;6.25;4.25;;;;;18.73;71.98;101156.06;5080219;27;46221;-56
2021/07/29 07:13:04;;;;;;;;;7.75;4.25;;;;;18.77;71.56;101152.31;5080505;27;45257;-56
2021/07/29 07:15:29;;;;;;;;;6.50;4.00;;;;;18.89;70.91;101159.53;5075974;28;45415;-56
2021/07/29 07:17:55;;;;;;;;;6.00;4.00;;;;;18.93;70.79;101168.13;5080355;28;45235;-56
2021/07/29 07:20:21;;;;;;;;;5.75;3.50;;;;;18.98;70.87;101168.72;5080641;28;45296;-56
2021/07/29 07:22:47;;;;;;;;;4.75;4.00;;;;;19.03;70.29;101167.53;5080547;27;45350;-60
2021/07/29 07:25:12;;;;;;;;;4.00;4.00;;;;;19.10;70.43;101173.31;5080559;27;45189;-55
2021/07/29 07:27:38;;;;;;;;;8.00;5.00;;;;;19.21;70.00;101172.69;5080679;27;45256;-55
2021/07/29 07:30:04;;;;;;;;;5.25;4.00;;;;;19.32;69.44;101173.78;5080520;27;45928;-55
2021/07/29 07:32:29;;;;;;;;;9.00;7.00;;;;;19.36;68.58;101175.31;5087023;27;45873;-56
2021/07/29 07:34:54;;;;;;;;;7.75;7.25;;;;;19.53;69.30;101171.69;5086681;27;45309;-55
2021/07/29 07:37:20;;;;;;;;;6.00;5.50;;;;;19.73;69.14;101174.06;5080648;27;45270;-55
2021/07/29 07:39:46;;;;;;;;;7.75;5.00;;;;;20.01;66.64;101164.50;5079922;27;46251;-55
2021/07/29 07:42:12;;;;;;;;;5.00;5.00;;;;;20.07;65.38;101171.22;5080392;27;45265;-55
2021/07/29 07:44:37;;;;;;;;;4.25;4.25;;;;;20.08;65.55;101171.13;5081126;27;45348;-55
2021/07/29 07:47:03;;;;;;;;;5.50;4.75;;;;;20.12;64.82;101171.78;5080001;28;45293;-55
2021/07/29 07:49:28;;;;;;;;;5.25;4.50;;;;;20.10;65.16;101169.25;5079970;27;45305;-55
2021/07/29 07:51:53;;;;;;;;;4.75;4.25;;;;;20.23;63.85;101158.81;5080308;27;45364;-55
2021/07/29 07:54:19;;;;;;;;;4.75;3.75;;;;;20.31;64.22;101165.28;5080399;27;45262;-56
2021/07/29 07:56:44;;;;;;;;;6.00;5.25;;;;;20.41;63.95;101162.94;5079975;27;45386;-55
2021/07/29 07:59:09;;;;;;;;;5.00;3.00;;;;;20.57;64.58;101165.50;5080038;27;46267;-55
2021/07/29 08:01:38;;;;;;;;;6.50;4.00;;;;;20.65;62.14;101165.88;5079883;27;45212;-55
2021/07/29 08:04:04;;;;;;;;;6.00;5.00;;;;;20.48;61.29;101166.94;5080512;27;45370;-55
2021/07/29 08:06:29;;;;;;;;;6.25;5.50;;;;;20.51;60.92;101163.25;5085352;27;45241;-55
2021/07/29 08:08:54;;;;;;;;;4.50;4.50;;;;;20.51;60.70;101165.88;5085934;27;45267;-55
2021/07/29 08:11:20;;;;;;;;;4.00;3.25;;;;;20.51;60.41;101164.09;5079553;27;45348;-55
2021/07/29 08:13:45;;;;;;;;;3.00;3.00;;;;;20.52;59.54;101165.78;5084845;27;45442;-55
2021/07/29 08:16:10;;;;;;;;;6.75;3.25;;;;;20.60;60.33;101160.88;5079805;27;45436;-55
2021/07/29 08:18:36;;;;;;;;;4.25;4.00;;;;;20.64;57.68;101167.69;5079678;28;45406;-55
2021/07/29 08:21:07;;;;;;;;;4.75;3.00;;;;;20.70;58.30;101173.50;5079609;27;45334;-55
2021/07/29 08:23:33;;;;;;;;;2.75;2.75;;;;;20.70;58.30;101171.72;5080039;27;45269;-55
2021/07/29 08:25:58;;;;;;;;;1.75;1.75;;;;;20.77;58.33;101165.09;5079263;27;45212;-59
2021/07/29 08:28:23;;;;;;;;;3.00;3.00;;;;;20.84;58.81;101160.28;5079557;28;46160;-55
2021/07/29 08:30:48;;;;;;;;;6.25;5.00;;;;;20.86;55.47;101167.16;5079474;27;45422;-54
2021/07/29 08:33:14;;;;;;;;;2.50;2.25;;;;;20.86;55.77;101161.88;5079932;27;45271;-55
2021/07/29 08:35:39;;;;;;;;;3.50;2.75;;;;;20.86;55.51;101161.88;5079232;28;45302;-55
2021/07/29 08:38:05;;;;;;;;;3.50;3.50;;;;;20.72;54.33;101167.19;5079796;27;46831;-55
2021/07/29 08:40:31;;;;;;;;;3.25;3.25;;;;;20.62;55.28;101163.41;5079151;28;45304;-55
2021/07/29 08:42:57;;;;;;;;;2.50;2.50;;;;;20.58;54.78;101170.69;5079769;27;45314;-55
2021/07/29 08:45:23;;;;;;;;;14.75;7.50;;;;;20.62;56.16;101169.56;5079716;27;45506;-55
2021/07/29 08:47:54;;;;;;;;;4.00;3.00;;;;;20.62;55.70;101166.94;5079600;27;46169;-55
2021/07/29 08:50:21;;;;;;;;;3.00;3.00;;;;;20.59;55.52;101166.25;5066824;27;45579;-55
2021/07/29 08:52:46;;;;;;;;;3.00;3.00;;;;;20.55;54.80;101170.88;5079603;27;45370;-55
2021/07/29 08:55:11;;;;;;;;;4.75;4.50;;;;;20.57;55.95;101166.34;5079040;27;45608;-55
2021/07/29 08:57:39;;;;;;;;;4.75;4.75;;;;;20.63;55.51;101165.13;5079256;27;46173;-55
2021/07/29 09:00:10;;;;;;;;;5.75;3.00;;;;;20.78;55.07;101156.22;5079715;27;45425;-55
2021/07/29 09:02:36;;;;;;;;;4.00;3.00;;;;;20.91;54.68;101161.59;5082961;27;45408;-55
2021/07/29 09:05:11;;;;;;;;;4.00;3.00;;;;;21.09;53.54;101156.91;5083167;27;45302;-55
2021/07/29 09:07:38;;;;;;;;;12.25;6.00;;;;;21.15;53.11;101159.16;5094861;27;45304;-55
2021/07/29 09:10:19;;;;;;;;;5.75;5.00;;;;;21.13;54.79;101161.06;5082581;27;45586;-56
2021/07/29 09:12:44;;;;;;;;;5.00;3.75;;;;;21.21;53.66;101156.09;5082764;27;45341;-55
2021/07/29 09:15:20;;;;;;;;;5.00;3.25;;;;;21.14;52.62;101149.53;5088117;27;45395;-55
2021/07/29 09:17:45;;;;;;;;;4.75;3.50;;;;;21.10;52.80;101161.25;5081553;27;46320;-56
2021/07/29 09:20:19;;;;;;;;;2.50;2.00;;;;;21.10;54.07;101162.09;5082595;27;45262;-56
2021/07/29 09:22:47;;;;;;;;;4.00;4.00;;;;;21.36;54.52;101151.66;5083065;27;45377;-55
2021/07/29 09:25:12;;;;;;;;;4.00;4.00;;;;;21.73;53.59;101150.03;5082200;27;45416;-55
2021/07/29 09:27:38;;;;;;;;;3.00;3.00;;;;;21.80;51.65;101143.38;5073150;27;46194;-56
2021/07/29 09:30:27;;;;;;;;;2.50;2.50;;;;;21.85;52.21;101146.56;5062039;28;45333;-56
2021/07/29 09:33:00;;;;;;;;;5.75;3.25;;;;;22.11;52.26;101145.66;5063006;28;45406;-56
2021/07/29 09:35:35;;;;;;;;;2.00;2.00;;;;;22.31;48.37;101140.78;5061723;28;45456;-55
2021/07/29 09:38:24;;;;;;;;;3.00;2.25;;;;;22.31;50.44;101135.47;5062003;28;45286;-55
2021/07/29 09:41:00;;;;;;;;;3.00;3.00;;;;;22.23;49.10;101138.69;5056267;28;45330;-56
2021/07/29 09:43:30;;;;;;;;;5.00;4.00;;;;;22.28;48.57;101131.25;5060426;28;45363;-55
2021/07/29 09:45:59;;;;;;;;;3.00;3.00;;;;;22.50;50.23;101135.88;5062054;28;45495;-55
2021/07/29 09:48:24;;;;;;;;;4.00;4.00;;;;;22.75;49.93;101138.44;5061565;28;45361;-55
2021/07/29 09:50:55;;;;;;;;;2.00;2.00;;;;;23.03;49.04;101139.16;5061963;28;45283;-55
2021/07/29 09:53:23;;;;;;;;;4.50;2.00;;;;;22.95;46.73;101141.50;5061687;28;45258;-55
2021/07/29 09:55:48;;;;;;;;;4.00;3.00;;;;;22.77;46.94;101144.47;5061321;28;45247;-56
2021/07/29 09:58:13;;;;;;;;;2.75;2.75;;;;;22.70;48.77;101143.25;5060879;28;45196;-56
2021/07/29 10:00:39;;;;;;;;;3.50;2.00;;;;;22.87;48.30;101143.88;5061514;28;45631;-56
2021/07/29 10:03:06;;;;;;;;;4.00;2.50;;;;;22.99;48.50;101140.31;5061552;28;45357;-56
2021/07/29 10:05:50;;;;;;;;;2.25;2.25;;;;;22.93;46.68;101132.81;5061378;28;45415;-55
2021/07/29 10:08:30;;;;;;;;;3.00;3.00;;;;;22.96;45.28;101141.38;5072335;28;46944;-56
2021/07/29 10:10:59;;;;;;;;;4.25;3.25;;;;;22.96;46.13;101138.72;5060976;28;45216;-55
2021/07/29 10:13:39;;;;;;;;;5.00;4.00;;;;;23.10;46.72;101144.84;5063974;28;45408;-55
2021/07/29 10:16:06;;;;;;;;;2.00;2.00;;;;;23.29;46.29;101138.06;5060919;28;45257;-55
2021/07/29 10:18:50;;;;;;;;;3.25;3.25;;;;;23.63;46.73;101122.31;5061312;28;46193;-55
2021/07/29 10:21:26;;;;;;;;;2.25;2.25;;;;;23.78;45.27;101136.19;5048887;28;45547;-56
2021/07/29 10:24:02;;;;;;;;;2.50;2.00;;;;;23.68;44.86;101133.41;5061186;28;45216;-55
2021/07/29 10:26:30;;;;;;;;;3.75;2.75;;;;;23.51;42.83;101134.66;5061080;28;45330;-56
2021/07/29 10:29:23;;;;;;;;;7.00;6.00;;;;;23.40;44.96;101131.09;5060943;28;45418;-56
2021/07/29 10:31:57;;;;;;;;;3.25;2.50;;;;;23.50;44.78;101127.66;5061085;28;45433;-55
2021/07/29 10:34:24;;;;;;;;;5.75;4.50;;;;;23.77;44.63;101113.25;5060970;28;45229;-55
2021/07/29 10:36:49;;;;;;;;;4.00;4.00;;;;;23.84;42.25;101111.84;5060810;28;45489;-55
2021/07/29 10:39:15;;;;;;;;;7.50;5.00;;;;;23.71;42.69;101116.41;5060536;28;45352;-55
2021/07/29 10:41:44;;;;;;;;;5.00;3.25;;;;;23.65;41.67;101112.41;5060943;28;45445;-56
2021/07/29 10:44:31;;;;;;;;;4.00;3.00;;;;;23.52;41.98;101122.22;5061525;28;45184;-56
2021/07/29 10:46:57;;;;;;;;;2.00;2.00;;;;;23.38;41.56;101124.09;5061069;28;45308;-55
2021/07/29 10:49:22;;;;;;;;;1.67;1.67;;;;;23.32;42.08;101127.22;5060774;28;45239;-55
2021/07/29 10:52:08;;;;;;;;;2.75;2.25;;;;;23.07;41.87;101124.69;5060477;28;45270;-56
2021/07/29 10:54:38;;;;;;;;;2.00;2.00;;;;;22.93;42.21;101124.88;5060334;28;45441;-55
2021/07/29 10:57:04;;;;;;;;;3.00;3.00;;;;;23.00;42.70;101123.44;5060697;28;45351;-55
2021/07/29 10:59:32;;;;;;;;;3.00;2.75;;;;;23.06;42.08;101129.16;5060885;28;46156;-56
2021/07/29 11:02:00;;;;;;;;;2.00;1.50;;;;;23.20;42.03;101120.16;5059280;28;45248;-55
2021/07/29 11:04:28;;;;;;;;;4.50;3.25;;;;;23.32;40.64;101119.25;5060300;28;45325;-56
2021/07/29 11:07:01;;;;;;;;;4.75;3.50;;;;;23.34;41.13;101116.50;5069220;28;45334;-56
2021/07/29 11:09:32;;;;;;;;;3.50;3.50;;;;;23.38;41.32;101121.44;5060688;28;46145;-56
2021/07/29 11:11:59;;;;;;;;;3.00;3.00;;;;;23.37;40.58;101117.09;5060519;28;45405;-55
2021/07/29 11:14:29;;;;;;;;;2.25;2.00;;;;;23.22;40.32;101117.41;5064319;28;45341;-55
2021/07/29 11:16:59;;;;;;;;;3.25;2.25;;;;;23.03;41.39;101117.94;5060251;28;45457;-55
2021/07/29 11:19:25;;;;;;;;;3.50;2.00;;;;;22.93;41.71;101111.59;5060092;28;45263;-55
2021/07/29 11:22:07;;;;;;;;;6.75;5.25;;;;;22.95;41.07;101115.84;5060336;28;45300;-55
2021/07/29 11:24:34;;;;;;;;;4.00;3.00;;;;;23.02;41.60;101117.06;5047238;28;45309;-55
2021/07/29 11:27:00;;;;;;;;;3.00;3.00;;;;;23.15;42.38;101109.06;5059932;28;45365;-56
2021/07/29 11:29:26;;;;;;;;;3.50;2.75;;;;;23.20;42.42;101114.84;5058701;28;48304;-55
2021/07/29 11:31:55;;;;;;;;;2.00;2.00;;;;;23.35;42.39;101104.91;5059826;28;45634;-56
2021/07/29 11:34:32;;;;;;;;;5.00;4.75;;;;;23.41;41.06;101096.50;5060039;28;45518;-55
2021/07/29 11:36:58;;;;;;;;;3.25;3.00;;;;;23.48;40.77;101095.09;5059848;28;45511;-55
2021/07/29 11:39:25;;;;;;;;;2.00;2.00;;;;;23.43;40.53;101097.25;5059692;28;45443;-55
2021/07/29 11:41:53;;;;;;;;;6.00;3.25;;;;;23.33;41.35;101098.88;5059879;28;45333;-56
2021/07/29 11:44:18;;;;;;;;;2.00;2.00;;;;;23.47;40.94;101100.50;5060278;28;45422;-55
2021/07/29 11:46:55;;;;;;;;;4.75;4.00;;;;;23.56;41.31;101098.03;5058616;28;45451;-55
2021/07/29 11:49:21;;;;;;;;;5.25;4.00;;;;;23.69;40.95;101089.97;5060053;28;46337;-55
2021/07/29 11:52:06;;;;;;;;;4.00;3.75;;;;;23.79;39.80;101100.72;5059716;28;45264;-55
2021/07/29 11:54:32;;;;;;;;;3.00;2.00;;;;;23.86;38.95;101096.66;5059119;28;45307;-55
2021/07/29 11:56:58;;;;;;;;;5.00;4.00;;;;;23.93;40.26;101098.69;5059860;28;45509;-55
2021/07/29 11:59:24;;;;;;;;;3.00;3.00;;;;;23.91;39.36;101095.31;5059710;28;46069;-54
2021/07/29 12:01:50;;;;;;;;;3.50;2.75;;;;;23.80;39.36;101102.41;5060645;28;45314;-54
2021/07/29 12:04:17;;;;;;;;;3.75;1.75;;;;;23.79;38.35;101098.91;5059998;28;45489;-54
2021/07/29 12:06:43;;;;;;;;;3.00;3.00;;;;;23.78;39.70;101104.34;5066969;28;45460;-54
2021/07/29 12:09:09;;;;;;;;;7.25;7.25;;;;;23.89;38.38;101097.25;5063211;28;45248;-54
2021/07/29 12:11:35;;;;;;;;;4.00;2.50;;;;;24.02;38.98;101085.66;5059827;28;45219;-54
2021/07/29 12:14:00;;;;;;;;;2.00;0.50;;;;;24.10;39.06;101093.88;5064481;28;45419;-55
2021/07/29 12:17:01;;;;;;;;;3.75;2.50;;;;;23.91;38.46;101090.00;5059813;28;45511;-55
2021/07/29 12:19:27;;;;;;;;;4.25;3.00;;;;;23.90;39.58;101087.47;4997874;28;46262;-54
2021/07/29 12:21:53;;;;;;;;;4.00;2.50;;;;;23.90;39.39;101090.97;5046880;28;45462;-54
2021/07/29 12:24:18;;;;;;;;;4.25;3.00;;;;;24.02;38.62;101085.66;5059223;28;45446;-54
2021/07/29 12:27:05;;;;;;;;;1.25;1.25;;;;;24.00;38.97;101082.28;5059566;28;45330;-54
2021/07/29 12:29:44;;;;;;;;;5.00;3.50;;;;;24.11;38.98;101072.50;5048802;28;45369;-56
2021/07/29 12:32:22;;;;;;;;;6.00;4.00;;;;;24.37;39.35;101073.13;5059403;28;45713;-55
2021/07/29 12:34:48;;;;;;;;;6.00;4.25;;;;;24.68;39.40;101065.34;5059207;28;45331;-55
2021/07/29 12:37:36;;;;;;;;;5.25;4.00;;;;;24.86;38.45;101067.34;5061971;28;45349;-55
2021/07/29 12:40:04;;;;;;;;;2.50;2.50;;;;;24.79;35.94;101070.63;5061466;28;46224;-55
2021/07/29 12:42:31;;;;;;;;;8.25;5.50;;;;;24.70;37.66;101072.22;5062385;28;45272;-55
2021/07/29 12:45:05;;;;;;;;;5.25;3.75;;;;;24.83;38.05;101062.28;5063044;28;45349;-55
2021/07/29 12:47:31;;;;;;;;;5.00;3.00;;;;;25.00;38.65;101066.22;5063007;28;45437;-55
2021/07/29 12:49:56;;;;;;;;;2.00;2.00;;;;;25.06;37.38;101060.41;5062813;28;45406;-55
2021/07/29 12:52:23;;;;;;;;;4.00;3.00;;;;;25.13;37.96;101066.91;5062939;28;45326;-55
2021/07/29 12:55:21;;;;;;;;;5.25;3.00;;;;;25.24;35.87;101057.19;5062250;28;45290;-55
2021/07/29 12:57:53;;;;;;;;;2.00;2.00;;;;;25.28;37.50;101058.63;5039361;28;45274;-55
2021/07/29 13:00:22;;;;;;;;;3.75;3.75;;;;;25.17;37.02;101062.16;5062589;28;45321;-55
2021/07/29 13:02:48;;;;;;;;;2.00;2.00;;;;;25.18;36.94;101062.03;5062678;28;45512;-55
2021/07/29 13:05:14;;;;;;;;;3.00;3.00;;;;;25.27;37.29;101059.59;5062842;28;45287;-56
2021/07/29 13:07:39;;;;;;;;;4.00;4.00;;;;;25.29;36.21;101054.97;5073264;28;45307;-55
2021/07/29 13:10:06;;;;;;;;;2.00;2.00;;;;;25.23;35.65;101042.16;5062004;28;45388;-55
2021/07/29 13:12:31;;;;;;;;;5.50;3.25;;;;;25.25;36.79;101040.25;5062232;28;45549;-55
2021/07/29 13:14:57;;;;;;;;;4.00;2.00;;;;;25.35;36.15;101041.16;5066655;28;45850;-56
2021/07/29 13:17:22;;;;;;;;;4.00;1.50;;;;;25.38;36.82;101047.03;5061963;28;45395;-55
2021/07/29 13:19:48;;;;;;;;;4.50;3.00;;;;;25.47;35.91;101050.75;5062420;28;46264;-55
2021/07/29 13:22:13;;;;;;;;;7.25;3.75;;;;;25.50;33.84;101047.84;5062344;28;45410;-55
2021/07/29 13:24:38;;;;;;;;;4.00;3.25;;;;;25.50;35.25;101041.66;5062140;28;45317;-55
2021/07/29 13:27:04;;;;;;;;;6.50;4.00;;;;;25.58;35.90;101044.50;5062142;28;45251;-55
2021/07/29 13:29:29;;;;;;;;;3.25;2.25;;;;;25.52;34.54;101048.53;5062306;28;45242;-56
2021/07/29 13:31:54;;;;;;;;;3.00;3.00;;;;;25.39;34.81;101045.22;5062255;28;45218;-55
2021/07/29 13:34:21;;;;;;;;;2.00;2.00;;;;;25.33;34.54;101041.28;5062178;28;45515;-55
2021/07/29 13:36:47;;;;;;;;;2.75;2.00;;;;;25.46;35.35;101033.09;5062074;28;45481;-55
2021/07/29 13:39:12;;;;;;;;;2.00;2.00;;;;;25.60;35.75;101035.41;5061701;28;46917;-55
2021/07/29 13:41:37;;;;;;;;;2.75;2.75;;;;;25.57;34.32;101037.50;5061794;28;45262;-55
2021/07/29 13:44:08;;;;;;;;;4.00;2.75;;;;;25.43;33.68;101034.22;5062343;28;45371;-56
2021/07/29 13:46:33;;;;;;;;;2.50;2.25;;;;;25.51;34.30;101043.34;5061428;28;45392;-55
2021/07/29 13:48:58;;;;;;;;;2.25;2.25;;;;;25.63;34.49;101018.31;5062137;28;46582;-55
2021/07/29 13:51:24;;;;;;;;;1.75;1.75;;;;;25.75;34.24;101012.00;5061745;28;46684;-55
2021/07/29 13:53:49;;;;;;;;;2.25;2.25;;;;;26.00;35.00;101021.31;5062082;28;45413;-55
2021/07/29 13:56:14;;;;;;;;;2.25;2.25;;;;;26.23;34.05;101020.16;5061639;28;45144;-55
2021/07/29 13:58:39;;;;;;;;;2.50;2.25;;;;;26.33;32.07;101013.03;5062329;28;45209;-55
2021/07/29 14:01:05;;;;;;;;;4.00;2.50;;;;;26.16;31.21;101012.84;5061485;28;45267;-55
2021/07/29 14:03:30;;;;;;;;;2.50;2.50;;;;;26.10;32.66;101010.72;5061997;28;45228;-55
2021/07/29 14:05:56;;;;;;;;;3.75;2.75;;;;;26.06;33.11;101016.31;5061740;28;45515;-55
2021/07/29 14:08:21;;;;;;;;;3.25;3.00;;;;;26.08;34.53;101021.53;5072451;28;46013;-55
2021/07/29 14:10:46;;;;;;;;;4.50;2.50;;;;;26.26;33.31;101017.22;5061634;28;45262;-55
2021/07/29 14:13:12;;;;;;;;;3.25;3.00;;;;;26.73;34.02;101005.94;5062712;28;45261;-55
2021/07/29 14:15:37;;;;;;;;;3.00;2.00;;;;;27.23;32.70;101001.28;5065273;28;45251;-55
2021/07/29 14:18:04;;;;;;;;;2.75;2.75;;;;;27.31;29.96;101006.78;5061520;28;45896;-55
2021/07/29 14:23:10;;;;;;;;;2.00;2.00;;;;;26.50;31.44;101008.03;5061674;28;45289;-55
2021/07/29 14:25:37;;;;;;;;;3.00;3.00;;;;;26.42;32.02;100995.38;5060859;28;45390;-55
2021/07/29 14:28:05;;;;;;;;;2.00;2.00;;;;;26.62;32.90;100991.75;5060986;28;46515;-55
2021/07/29 14:30:30;;;;;;;;;6.75;4.00;;;;;27.15;32.26;100991.34;5061131;28;45325;-55
2021/07/29 14:32:56;;;;;;;;;3.00;3.00;;;;;27.36;32.07;100988.50;5061173;28;45533;-55
2021/07/29 14:35:22;;;;;;;;;4.00;4.00;;;;;27.33;32.14;100987.94;5060233;28;45341;-55
2021/07/29 14:37:48;;;;;;;;;4.75;4.25;;;;;27.52;31.18;100979.88;5060973;28;46681;-55
2021/07/29 14:40:14;;;;;;;;;4.00;4.00;;;;;27.40;30.92;100978.34;5060528;28;45338;-54
2021/07/29 14:42:40;;;;;;;;;3.75;3.75;;;;;27.05;31.79;100984.34;5061108;28;45445;-55
2021/07/29 14:50:16;;;;;;;;;3.00;3.00;;;;;26.85;32.76;100984.34;5048390;28;45438;-55
2021/07/29 14:52:42;;;;;;;;;2.50;1.75;;;;;27.26;32.02;100980.53;5060835;28;45295;-55
2021/07/29 14:55:13;;;;;;;;;13.50;12.50;;;;;27.54;32.29;100969.88;5060303;28;45494;-55
2021/07/29 16:08:36;;;;;;;;;3.25;2.50;;;;;30.67;25.69;100941.44;5050721;28;45416;-55
2021/07/29 16:11:01;;;;;;;;;2.25;2.25;;;;;29.50;26.97;100943.25;5059019;28;45515;-50
2021/07/29 16:13:29;;;;;;;;;5.00;4.75;;;;;28.67;27.70;100940.97;5062278;28;46104;-56
2021/07/29 16:15:55;;;;;;;;;4.00;2.75;;;;;28.14;29.16;100947.13;5055870;28;45419;-56
2021/07/29 16:18:20;;;;;;;;;6.00;6.00;;;;;27.94;29.30;100939.38;5054352;28;45300;-55
2021/07/29 16:20:46;;;;;;;;;5.00;4.00;;;;;27.72;29.65;100941.47;5051127;28;45337;-55
2021/07/29 16:23:11;;;;;;;;;4.00;4.00;;;;;28.47;29.30;100928.78;5051368;28;45404;-55
2021/07/29 16:25:38;;;;;;;;;3.75;3.75;;;;;29.58;28.80;100924.53;5050890;28;50903;-55
2021/07/29 16:28:04;;;;;;;;;2.50;2.00;;;;;29.73;26.92;100920.25;5052351;28;45337;-66
2021/07/29 16:30:29;;;;;;;;;4.00;3.00;;;;;28.93;28.24;100916.13;5053542;28;45612;-68
2021/07/29 16:32:54;;;;;;;;;2.75;2.00;;;;;28.10;28.84;100913.69;5057194;28;46196;-69
2021/07/29 16:35:20;;;;;;;;;4.75;2.75;;;;;27.74;29.76;100922.63;5056303;28;45442;-69
2021/07/29 16:37:45;;;;;;;;;5.25;3.00;;;;;29.94;28.15;100926.03;5057428;28;45319;-72
2021/07/29 16:40:10;;;;;;;;;3.00;3.00;;;;;32.74;26.71;100922.28;5056699;28;45416;-70
2021/07/29 16:42:36;;;;;;;;;5.50;3.75;;;;;32.73;24.76;100912.53;5059290;28;46205;-71
2021/07/29 16:45:02;;;;;;;;;4.00;2.25;;;;;34.45;24.01;100920.25;5059316;28;45322;-69
2021/07/29 16:47:27;;;;;;;;;3.00;3.00;;;;;35.84;21.24;100915.78;5059651;28;45333;-69
2021/07/29 16:49:54;;;;;;;;;2.25;2.25;;;;;36.75;20.64;100906.13;5059756;28;45599;-69
2021/07/29 16:52:19;;;;;;;;;4.00;4.00;;;;;35.01;20.60;100906.78;5058728;28;46095;-72
2021/07/29 16:54:45;;;;;;;;;3.00;1.25;;;;;32.73;22.63;100904.47;5058929;28;45280;-71
2021/07/29 16:57:10;;;;;;;;;3.00;3.00;;;;;31.54;24.74;100899.50;5058814;28;45385;-70
2021/07/29 16:59:37;;;;;;;;;3.00;3.00;;;;;31.68;25.20;100904.16;5059091;28;45220;-70